Forside
METAR-TAF:

METAR-TAF

Lufthavne :

Flugplatz Hamburg-Finkenwerder

Finkenwerder, Tyskland

Breddekreds: 53-32N, længdekreds: 009-50E, højde: 5 m

Aktuelle vejr

Denne rapport blev lavet for 26 minutter siden, kl. 09:20 UTC
Vind 8 kt fra sydvest, varierende mellem sydsydvest og vest
Temperatur 25°C
Fugtighed 61%
Tryk 1007 hPa
Sigt 10 km eller mere
ingen skyer under 1500m og ingen cumulonimbus

METAR: EDHI 160920Z 23008KT 200V270 CAVOK 25/17 Q1007

Tid: 11:46 (09:46 UTC)

Vejrudsigter

Denne rapport blev lavet for 1 time og 46 minutter siden, kl. 08:00 UTC
Foreløbig gælder fra 16 på 09 UTC til 16 på 18 UTC
Vind 6 kt fra sydvest
Sigt 10 km eller mere
ingen skyer under 1500m og ingen cumulonimbus
Sandsynlighed 30% :
Midlertidig
fra 16 på 13 UTC til 16 på 15 UTC
Brudte skyer i en højde af 4000 ft, Cumulonimbus.
tordenbyger, regn

TAF: EDHI 160800Z 1609/1618 23006KT CAVOK PROB30 TEMPO 1613/1615 TSRA BKN040CB

Vejrobservationer og prognoser fra mere end 4000 lufthavne (METAR og TAF).

De gule og røde prikker repræsenterer de meteorologiske stationer.

Flyt musen over at se navnet på stationen.

Så klik over at se vejr observationer og prognoser.

At skifte det kort: Klik på de grønne knapper med et sort kors for at zoome ind; på den grønne knap med en bindestreg for at zoome ud; eller på de grønne pile for tilstødende kort.


METAR-TAF: